createdAt,value
2022-11-16T00:00:18.645Z,36.32
2022-11-16T00:00:48.646Z,36.32
2022-11-16T00:01:18.642Z,36.22
2022-11-16T00:01:48.709Z,36.22
2022-11-16T00:02:18.756Z,36.22
2022-11-16T00:02:48.762Z,36.22
2022-11-16T00:03:18.761Z,36.22
2022-11-16T00:03:48.757Z,36.22
2022-11-16T00:04:18.733Z,36.22
2022-11-16T00:04:48.703Z,36.22
2022-11-16T00:05:18.666Z,36.22
2022-11-16T00:05:48.632Z,36.22
2022-11-16T00:06:18.615Z,36.22
2022-11-16T00:06:48.602Z,36.22
2022-11-16T00:07:18.653Z,36.22
2022-11-16T00:07:48.713Z,36.22
2022-11-16T00:08:18.765Z,36.22
2022-11-16T00:08:48.758Z,36.22
2022-11-16T00:09:18.732Z,36.12
2022-11-16T00:09:48.704Z,36.12
2022-11-16T00:10:18.677Z,36.22
2022-11-16T00:10:48.652Z,36.12
2022-11-16T00:11:18.629Z,36.22
2022-11-16T00:11:48.595Z,36.22
2022-11-16T00:12:18.578Z,36.22
2022-11-16T00:12:48.543Z,36.22
2022-11-16T00:13:18.503Z,36.22
2022-11-16T00:13:48.502Z,36.32
2022-11-16T00:14:18.471Z,36.32
2022-11-16T00:14:48.443Z,36.32
2022-11-16T00:15:18.629Z,36.32
2022-11-16T00:15:48.588Z,36.32
2022-11-16T00:16:18.564Z,36.32
2022-11-16T00:16:48.533Z,36.22
2022-11-16T00:17:18.509Z,36.22
2022-11-16T00:17:48.484Z,36.22
2022-11-16T00:18:18.452Z,36.12
2022-11-16T00:18:48.442Z,36.22
2022-11-16T00:19:18.410Z,36.12
2022-11-16T00:19:48.385Z,36.12
2022-11-16T00:20:18.348Z,36.22
2022-11-16T00:20:48.348Z,36.22
2022-11-16T00:21:18.305Z,36.22
2022-11-16T00:21:48.280Z,36.22
2022-11-16T00:22:18.252Z,36.22
2022-11-16T00:22:48.226Z,36.22
2022-11-16T00:23:18.197Z,36.22
2022-11-16T00:23:48.179Z,36.22
2022-11-16T00:24:18.182Z,36.22
2022-11-16T00:24:48.190Z,36.22
2022-11-16T00:25:18.155Z,36.12
2022-11-16T00:25:48.112Z,36.12
2022-11-16T00:26:18.088Z,36.12
2022-11-16T00:26:48.044Z,36.12
2022-11-16T00:27:18.006Z,36.22
2022-11-16T00:27:47.993Z,36.22
2022-11-16T00:28:17.957Z,36.22
2022-11-16T00:28:47.927Z,36.22
2022-11-16T00:29:17.892Z,36.22
2022-11-16T00:29:47.867Z,36.22
2022-11-16T00:30:17.831Z,36.22
2022-11-16T00:30:47.888Z,36.22
2022-11-16T00:31:17.856Z,36.22
2022-11-16T00:31:47.836Z,36.12
2022-11-16T00:32:17.844Z,36.12
2022-11-16T00:32:47.862Z,36.12
2022-11-16T00:33:17.863Z,36.12
2022-11-16T00:33:47.836Z,36.12
2022-11-16T00:34:17.832Z,36.12
2022-11-16T00:34:47.809Z,36.22
2022-11-16T00:35:17.779Z,36.22
2022-11-16T00:35:47.742Z,36.22
2022-11-16T00:36:17.725Z,36.12
2022-11-16T00:36:47.700Z,36.12
2022-11-16T00:37:17.670Z,36.12
2022-11-16T00:37:47.667Z,36.12
2022-11-16T00:38:17.640Z,36.12
2022-11-16T00:38:47.614Z,36.12
2022-11-16T00:39:17.577Z,36.12
2022-11-16T00:39:47.580Z,36.02
2022-11-16T00:40:17.596Z,36.12
2022-11-16T00:40:47.578Z,36.02
2022-11-16T00:41:17.562Z,36.02
2022-11-16T00:41:47.533Z,36.12
2022-11-16T00:42:17.506Z,36.02
2022-11-16T00:42:47.513Z,36.02
2022-11-16T00:43:17.470Z,36.02
2022-11-16T00:43:47.442Z,36.02
2022-11-16T00:44:17.412Z,36.02
2022-11-16T00:44:47.374Z,36.02
2022-11-16T00:45:17.347Z,36.12
2022-11-16T00:45:47.311Z,36.02
2022-11-16T00:46:17.327Z,36.12
2022-11-16T00:46:47.295Z,36.12
2022-11-16T00:47:17.285Z,36.12
2022-11-16T00:47:47.275Z,36.12
2022-11-16T00:48:17.249Z,36.02
2022-11-16T00:48:47.228Z,36.02
2022-11-16T00:49:17.195Z,36.02
2022-11-16T00:49:47.166Z,36.00
2022-11-16T00:50:17.144Z,36.00
2022-11-16T00:50:47.162Z,36.00
2022-11-16T00:51:17.177Z,36.02
2022-11-16T00:51:47.154Z,36.00
2022-11-16T00:52:17.156Z,36.02
2022-11-16T00:52:47.176Z,36.02
2022-11-16T00:53:17.149Z,36.00
2022-11-16T00:53:47.124Z,36.00
2022-11-16T00:54:17.096Z,36.00
2022-11-16T00:54:47.058Z,35.91
2022-11-16T00:55:17.029Z,36.00
2022-11-16T00:55:46.997Z,36.02
2022-11-16T00:56:16.966Z,36.12
2022-11-16T00:56:46.941Z,36.12
2022-11-16T00:57:16.910Z,36.12
2022-11-16T00:57:46.883Z,36.12
2022-11-16T00:58:16.892Z,36.02
2022-11-16T00:58:46.854Z,36.00
2022-11-16T00:59:16.825Z,36.00
2022-11-16T00:59:46.821Z,36.00
2022-11-16T01:00:16.820Z,36.02
2022-11-16T01:00:46.784Z,36.00
2022-11-16T01:01:16.855Z,36.00
2022-11-16T01:01:46.959Z,36.00
2022-11-16T01:02:16.976Z,36.00
2022-11-16T01:02:46.950Z,35.91
2022-11-16T01:03:16.931Z,36.00
2022-11-16T01:03:46.914Z,36.00
2022-11-16T01:04:16.887Z,35.91
2022-11-16T01:04:46.872Z,35.91
2022-11-16T01:05:16.844Z,36.02
2022-11-16T01:05:46.819Z,36.00
2022-11-16T01:06:16.836Z,36.02
2022-11-16T01:06:46.920Z,36.02
2022-11-16T01:07:16.980Z,36.12
2022-11-16T01:07:47.055Z,36.02
2022-11-16T01:08:17.077Z,36.02
2022-11-16T01:08:47.048Z,36.00
2022-11-16T01:09:17.020Z,36.02
2022-11-16T01:09:47.010Z,36.00
2022-11-16T01:10:16.985Z,36.00
2022-11-16T01:10:46.957Z,36.00
2022-11-16T01:11:16.933Z,36.02
2022-11-16T01:11:46.909Z,36.02
2022-11-16T01:12:16.887Z,36.02
2022-11-16T01:12:46.854Z,36.02
2022-11-16T01:13:16.824Z,36.02
2022-11-16T01:13:46.800Z,36.02
2022-11-16T01:14:16.772Z,36.00
2022-11-16T01:14:46.762Z,36.00
2022-11-16T01:15:16.721Z,36.02
2022-11-16T01:15:46.733Z,36.00
2022-11-16T01:16:16.704Z,36.00
2022-11-16T01:16:46.684Z,36.00
2022-11-16T01:17:16.693Z,36.02
2022-11-16T01:17:46.665Z,36.02
2022-11-16T01:18:16.628Z,36.00
2022-11-16T01:18:46.602Z,36.00
2022-11-16T01:19:16.563Z,36.02
2022-11-16T01:19:46.537Z,36.00
2022-11-16T01:20:16.507Z,36.00
2022-11-16T01:20:46.507Z,36.02
2022-11-16T01:21:16.517Z,36.02
2022-11-16T01:21:46.493Z,36.00
2022-11-16T01:22:16.473Z,35.91
2022-11-16T01:22:46.460Z,35.91
2022-11-16T01:23:16.432Z,35.91
2022-11-16T01:23:46.402Z,35.91
2022-11-16T01:24:16.427Z,35.91
2022-11-16T01:24:46.399Z,35.91
2022-11-16T01:25:16.402Z,35.91
2022-11-16T01:25:46.387Z,35.91
2022-11-16T01:26:16.378Z,35.91
2022-11-16T01:26:46.342Z,35.91
2022-11-16T01:27:16.334Z,35.91
2022-11-16T01:27:46.299Z,35.91
2022-11-16T01:28:16.323Z,36.00
2022-11-16T01:28:46.293Z,36.02
2022-11-16T01:29:16.272Z,36.12
2022-11-16T01:29:46.246Z,36.02
2022-11-16T01:30:16.202Z,36.02
2022-11-16T01:30:46.182Z,36.00
2022-11-16T01:31:16.156Z,36.00
2022-11-16T01:31:46.128Z,36.00
2022-11-16T01:32:16.091Z,36.00
2022-11-16T01:32:46.088Z,35.91
2022-11-16T01:33:16.061Z,35.91
2022-11-16T01:33:46.023Z,35.91
2022-11-16T01:34:15.988Z,35.91
2022-11-16T01:34:45.951Z,35.91
2022-11-16T01:35:15.917Z,35.91
2022-11-16T01:35:45.886Z,36.00
2022-11-16T01:36:15.864Z,36.00
2022-11-16T01:36:45.833Z,36.00
2022-11-16T01:37:15.829Z,36.02
2022-11-16T01:37:45.802Z,36.02
2022-11-16T01:38:15.768Z,36.02
2022-11-16T01:38:45.873Z,36.12
2022-11-16T01:39:15.907Z,36.02
2022-11-16T01:39:45.876Z,36.02
2022-11-16T01:40:15.839Z,36.02
2022-11-16T01:40:45.812Z,36.02
2022-11-16T01:41:15.794Z,36.02
2022-11-16T01:41:45.767Z,36.02
2022-11-16T01:42:15.739Z,36.02
2022-11-16T01:42:45.710Z,36.00
2022-11-16T01:43:15.677Z,35.91
2022-11-16T01:43:45.686Z,35.91
2022-11-16T01:44:15.691Z,35.91
2022-11-16T01:44:45.669Z,35.91
2022-11-16T01:45:15.639Z,35.91
2022-11-16T01:45:45.612Z,35.91
2022-11-16T01:46:15.584Z,36.00
2022-11-16T01:46:45.562Z,35.91
2022-11-16T01:47:15.532Z,36.00
2022-11-16T01:47:45.512Z,35.91
2022-11-16T01:48:15.574Z,35.91
2022-11-16T01:48:45.718Z,35.91
2022-11-16T01:49:15.712Z,35.91
2022-11-16T01:49:45.703Z,35.91
2022-11-16T01:50:15.676Z,35.91
2022-11-16T01:50:45.668Z,35.91
2022-11-16T01:51:15.635Z,35.91
2022-11-16T01:51:45.604Z,35.91
2022-11-16T01:52:15.570Z,35.91
2022-11-16T01:52:45.554Z,35.91
2022-11-16T01:53:15.536Z,35.91
2022-11-16T01:53:45.621Z,35.80
2022-11-16T01:54:15.601Z,35.91
2022-11-16T01:54:45.575Z,35.80
2022-11-16T01:55:15.866Z,35.91
2022-11-16T01:55:46.005Z,35.91
2022-11-16T01:56:17.859Z,35.91
2022-11-16T01:56:49.341Z,35.91
2022-11-16T01:57:20.746Z,35.91
2022-11-16T01:57:58.594Z,35.91
2022-11-16T01:58:28.558Z,35.91
2022-11-16T01:58:58.596Z,36.00
2022-11-16T01:59:28.578Z,36.02
2022-11-16T01:59:58.597Z,36.02
2022-11-16T02:00:28.577Z,36.00
2022-11-16T02:00:58.655Z,35.91
2022-11-16T02:01:28.799Z,35.91
2022-11-16T02:01:58.804Z,35.91
2022-11-16T02:02:28.805Z,35.91
2022-11-16T02:02:58.803Z,35.91
2022-11-16T02:03:28.824Z,35.91
2022-11-16T02:03:58.801Z,35.91
2022-11-16T02:04:28.761Z,35.91
2022-11-16T02:04:58.753Z,35.91
2022-11-16T02:05:28.715Z,35.91
2022-11-16T02:05:58.708Z,35.91
2022-11-16T02:06:28.683Z,35.91
2022-11-16T02:06:58.677Z,35.91
2022-11-16T02:07:28.697Z,35.91
2022-11-16T02:07:58.689Z,35.91
2022-11-16T02:08:28.683Z,35.80
2022-11-16T02:08:58.665Z,35.80
2022-11-16T02:09:28.672Z,35.80
2022-11-16T02:09:58.644Z,35.80
2022-11-16T02:10:28.611Z,35.80
2022-11-16T02:10:58.604Z,35.91
2022-11-16T02:11:28.575Z,35.91
2022-11-16T02:11:58.541Z,35.80
2022-11-16T02:12:28.511Z,35.80
2022-11-16T02:12:58.484Z,35.80
2022-11-16T02:13:28.452Z,35.80
2022-11-16T02:13:58.664Z,35.91
2022-11-16T02:14:28.630Z,35.91
2022-11-16T02:14:58.621Z,35.91
2022-11-16T02:15:28.584Z,35.92
2022-11-16T02:15:58.550Z,35.92
2022-11-16T02:16:28.521Z,36.00
2022-11-16T02:16:58.493Z,35.91
2022-11-16T02:17:28.456Z,35.80
2022-11-16T02:17:58.470Z,35.80
2022-11-16T02:18:28.441Z,35.80
2022-11-16T02:18:58.441Z,35.80
2022-11-16T02:19:28.416Z,35.91
2022-11-16T02:19:58.421Z,35.80
2022-11-16T02:20:28.387Z,35.91
2022-11-16T02:20:58.358Z,35.91
2022-11-16T02:21:28.334Z,35.80
2022-11-16T02:21:58.342Z,35.80
2022-11-16T02:22:28.317Z,35.80
2022-11-16T02:22:58.280Z,35.80
2022-11-16T02:23:28.257Z,35.80
2022-11-16T02:23:58.266Z,35.80
2022-11-16T02:24:28.272Z,35.80
2022-11-16T02:24:58.257Z,35.80
2022-11-16T02:25:28.232Z,35.80
2022-11-16T02:25:58.196Z,35.80
2022-11-16T02:26:28.158Z,35.80
2022-11-16T02:26:58.141Z,35.91
2022-11-16T02:27:28.115Z,35.80
2022-11-16T02:27:58.096Z,35.80
2022-11-16T02:28:28.072Z,35.71
2022-11-16T02:28:58.089Z,35.71
2022-11-16T02:29:28.071Z,35.80
2022-11-16T02:29:58.069Z,35.80
2022-11-16T02:30:28.034Z,35.80
2022-11-16T02:30:58.015Z,35.80
2022-11-16T02:31:27.989Z,35.80
2022-11-16T02:31:57.962Z,35.80
2022-11-16T02:32:27.925Z,35.80
2022-11-16T02:32:57.887Z,35.71
2022-11-16T02:33:27.859Z,35.80
2022-11-16T02:33:57.824Z,35.71
2022-11-16T02:34:27.853Z,35.71
2022-11-16T02:34:57.832Z,35.71
2022-11-16T02:35:27.826Z,35.71
2022-11-16T02:35:57.798Z,35.71
2022-11-16T02:36:27.763Z,35.71
2022-11-16T02:36:57.765Z,35.71
2022-11-16T02:37:27.743Z,35.71
2022-11-16T02:37:57.708Z,35.71
2022-11-16T02:38:27.684Z,35.71
2022-11-16T02:38:57.655Z,35.80
2022-11-16T02:39:27.634Z,35.80
2022-11-16T02:39:57.600Z,35.71
2022-11-16T02:40:27.569Z,35.61
2022-11-16T02:40:57.540Z,35.71
2022-11-16T02:41:27.499Z,35.71
2022-11-16T02:41:57.474Z,35.71
2022-11-16T02:42:27.450Z,35.80
2022-11-16T02:42:57.424Z,35.80
2022-11-16T02:43:27.385Z,35.80
2022-11-16T02:43:57.354Z,35.80
2022-11-16T02:44:27.332Z,35.80
2022-11-16T02:44:57.297Z,35.80
2022-11-16T02:45:27.272Z,35.71
2022-11-16T02:45:57.284Z,35.71
2022-11-16T02:46:27.265Z,35.71
2022-11-16T02:46:57.232Z,35.71
2022-11-16T02:47:27.204Z,35.71
2022-11-16T02:47:57.184Z,35.71
2022-11-16T02:48:27.147Z,35.71
2022-11-16T02:48:57.110Z,35.61
2022-11-16T02:49:27.109Z,35.71
2022-11-16T02:49:57.098Z,35.71
2022-11-16T02:50:27.057Z,35.71
2022-11-16T02:50:57.030Z,35.71
2022-11-16T02:51:27.007Z,35.71
2022-11-16T02:51:56.976Z,35.71
2022-11-16T02:52:26.948Z,35.71
2022-11-16T02:52:56.923Z,35.71
2022-11-16T02:53:26.897Z,35.71
2022-11-16T02:53:56.869Z,35.71
2022-11-16T02:54:26.852Z,35.71
2022-11-16T02:54:56.814Z,35.71
2022-11-16T02:55:26.785Z,35.71
2022-11-16T02:55:56.758Z,35.61
2022-11-16T02:56:26.738Z,35.71
2022-11-16T02:56:56.701Z,35.71
2022-11-16T02:57:26.677Z,35.71
2022-11-16T02:57:56.666Z,35.71
2022-11-16T02:58:26.629Z,35.80
2022-11-16T02:58:56.593Z,35.80
2022-11-16T02:59:26.598Z,35.71
2022-11-16T02:59:56.566Z,35.71
2022-11-16T03:00:26.559Z,35.71
2022-11-16T03:00:56.566Z,35.71
2022-11-16T03:01:26.580Z,35.71
2022-11-16T03:01:56.585Z,35.71
2022-11-16T03:02:26.557Z,35.71
2022-11-16T03:02:56.529Z,35.61
2022-11-16T03:03:26.494Z,35.61
2022-11-16T03:03:56.457Z,35.61
2022-11-16T03:04:26.447Z,35.61
2022-11-16T03:04:56.416Z,35.61
2022-11-16T03:05:26.427Z,35.61
2022-11-16T03:05:56.392Z,35.61
2022-11-16T03:06:26.396Z,35.71
2022-11-16T03:06:56.447Z,35.71
2022-11-16T03:07:26.479Z,35.71
2022-11-16T03:07:56.504Z,35.71
2022-11-16T03:08:26.474Z,35.71
2022-11-16T03:08:56.466Z,35.71
2022-11-16T03:09:26.451Z,35.71
2022-11-16T03:09:56.415Z,35.71
2022-11-16T03:10:26.395Z,35.71
2022-11-16T03:10:56.362Z,35.71
2022-11-16T03:11:26.344Z,35.71
2022-11-16T03:11:56.346Z,35.71
2022-11-16T03:12:26.310Z,35.71
2022-11-16T03:12:56.292Z,35.71
2022-11-16T03:13:26.256Z,35.71
2022-11-16T03:13:56.216Z,35.71
2022-11-16T03:14:26.187Z,35.71
2022-11-16T03:14:56.288Z,35.71
2022-11-16T03:15:26.271Z,35.71
2022-11-16T03:15:56.243Z,35.71
2022-11-16T03:16:26.215Z,35.71
2022-11-16T03:16:56.178Z,35.71
2022-11-16T03:17:26.150Z,35.71
2022-11-16T03:17:56.119Z,35.71
2022-11-16T03:18:26.089Z,35.71
2022-11-16T03:18:56.054Z,35.61
2022-11-16T03:19:26.032Z,35.61
2022-11-16T03:19:56.009Z,35.49
2022-11-16T03:20:26.005Z,35.59
2022-11-16T03:20:56.021Z,35.49
2022-11-16T03:21:26.002Z,35.61
2022-11-16T03:21:55.975Z,35.61
2022-11-16T03:22:25.939Z,35.61
2022-11-16T03:22:55.924Z,35.61
2022-11-16T03:23:25.892Z,35.61
2022-11-16T03:23:55.855Z,35.61
2022-11-16T03:24:25.829Z,35.61
2022-11-16T03:24:55.816Z,35.61
2022-11-16T03:25:25.797Z,35.71
2022-11-16T03:25:55.801Z,35.71
2022-11-16T03:26:25.768Z,35.71
2022-11-16T03:26:55.729Z,35.71
2022-11-16T03:27:25.688Z,35.71
2022-11-16T03:27:55.652Z,35.71
2022-11-16T03:28:25.627Z,35.71
2022-11-16T03:28:55.598Z,35.71
2022-11-16T03:29:25.558Z,35.71
2022-11-16T03:29:55.533Z,35.71
2022-11-16T03:30:25.530Z,35.71
2022-11-16T03:30:55.490Z,35.71
2022-11-16T03:31:25.461Z,35.71
2022-11-16T03:31:55.420Z,35.61
2022-11-16T03:32:25.394Z,35.71
2022-11-16T03:32:55.390Z,35.71
2022-11-16T03:33:25.354Z,35.71
2022-11-16T03:33:55.327Z,35.71
2022-11-16T03:34:25.299Z,35.71
2022-11-16T03:34:55.265Z,35.71
2022-11-16T03:35:25.252Z,35.71
2022-11-16T03:35:55.211Z,35.80
2022-11-16T03:36:25.200Z,35.71
2022-11-16T03:36:55.167Z,35.71
2022-11-16T03:37:25.142Z,35.80
2022-11-16T03:37:55.105Z,35.80
2022-11-16T03:38:25.086Z,35.71
2022-11-16T03:38:55.059Z,35.71
2022-11-16T03:39:25.030Z,35.71
2022-11-16T03:39:54.994Z,35.71
2022-11-16T03:40:24.993Z,35.71
2022-11-16T03:40:54.955Z,35.71
2022-11-16T03:41:24.931Z,35.71
2022-11-16T03:41:54.903Z,35.71
2022-11-16T03:42:24.883Z,35.71
2022-11-16T03:42:54.838Z,35.71
2022-11-16T03:43:24.811Z,35.71
2022-11-16T03:43:54.784Z,35.71
2022-11-16T03:44:24.755Z,35.61
2022-11-16T03:44:54.730Z,35.61
2022-11-16T03:45:24.748Z,35.61
2022-11-16T03:45:54.721Z,35.61
2022-11-16T03:46:24.678Z,35.61
2022-11-16T03:46:54.659Z,35.61
2022-11-16T03:47:24.671Z,35.61
2022-11-16T03:47:54.629Z,35.61
2022-11-16T03:48:24.601Z,35.61
2022-11-16T03:48:54.574Z,35.50
2022-11-16T03:49:24.539Z,35.49
2022-11-16T03:49:54.509Z,35.61
2022-11-16T03:50:24.484Z,35.61
2022-11-16T03:50:54.491Z,35.71
2022-11-16T03:51:24.470Z,35.61
2022-11-16T03:51:54.479Z,35.61
2022-11-16T03:52:24.447Z,35.71
2022-11-16T03:52:54.413Z,35.61
2022-11-16T03:53:24.387Z,35.61
2022-11-16T03:53:54.381Z,35.71
2022-11-16T03:54:24.392Z,35.71
2022-11-16T03:54:54.384Z,35.71
2022-11-16T03:55:24.357Z,35.71
2022-11-16T03:55:54.330Z,35.80
2022-11-16T03:56:24.305Z,35.80
2022-11-16T03:56:54.301Z,35.80
2022-11-16T03:57:24.269Z,35.80
2022-11-16T03:57:54.256Z,35.80
2022-11-16T03:58:24.221Z,35.71
2022-11-16T03:58:54.194Z,35.61
2022-11-16T03:59:24.156Z,35.61
2022-11-16T03:59:54.131Z,35.61
2022-11-16T04:00:24.101Z,35.61
2022-11-16T04:00:54.190Z,35.61
2022-11-16T04:01:24.282Z,35.71
2022-11-16T04:01:54.279Z,35.71
2022-11-16T04:02:24.244Z,35.71
2022-11-16T04:02:54.237Z,35.71
2022-11-16T04:03:24.258Z,35.71
2022-11-16T04:03:54.440Z,35.71
2022-11-16T04:04:24.581Z,35.80
2022-11-16T04:04:54.543Z,35.71
2022-11-16T04:05:24.520Z,35.80
2022-11-16T04:05:54.484Z,35.80
2022-11-16T04:06:24.451Z,35.71
2022-11-16T04:06:54.484Z,35.71
2022-11-16T04:07:24.687Z,35.61
2022-11-16T04:07:54.741Z,35.61
2022-11-16T04:08:24.724Z,35.71
2022-11-16T04:08:54.693Z,35.71
2022-11-16T04:09:24.698Z,35.61
2022-11-16T04:09:54.708Z,35.61
2022-11-16T04:10:24.670Z,35.61
2022-11-16T04:10:54.634Z,35.61
2022-11-16T04:11:24.608Z,35.61
2022-11-16T04:11:54.618Z,35.50
2022-11-16T04:12:24.584Z,35.50
2022-11-16T04:12:54.561Z,35.49
2022-11-16T04:13:24.545Z,35.50
2022-11-16T04:13:54.506Z,35.50
2022-11-16T04:14:24.480Z,35.49
2022-11-16T04:14:54.454Z,35.49
2022-11-16T04:15:24.424Z,35.50
2022-11-16T04:15:54.393Z,35.61
2022-11-16T04:16:24.440Z,35.61
2022-11-16T04:16:54.454Z,35.71
2022-11-16T04:17:24.428Z,35.71
2022-11-16T04:17:54.402Z,35.61
2022-11-16T04:18:24.373Z,35.61
2022-11-16T04:18:54.338Z,35.61
2022-11-16T04:19:24.309Z,35.61
2022-11-16T04:19:58.179Z,35.61
2022-11-16T04:20:28.426Z,35.61
2022-11-16T04:20:58.388Z,35.61
2022-11-16T04:21:28.369Z,35.61
2022-11-16T04:21:58.355Z,35.61
2022-11-16T04:22:28.348Z,35.61
2022-11-16T04:22:58.306Z,35.61
2022-11-16T04:23:28.283Z,35.61
2022-11-16T04:23:58.285Z,35.61
2022-11-16T04:24:28.295Z,35.61
2022-11-16T04:24:58.268Z,35.61
2022-11-16T04:25:28.230Z,35.61
2022-11-16T04:25:58.195Z,35.61
2022-11-16T04:26:28.216Z,35.61
2022-11-16T04:26:59.196Z,35.61
2022-11-16T04:27:29.157Z,35.61
2022-11-16T04:27:59.140Z,35.61
2022-11-16T04:28:29.161Z,35.71
2022-11-16T04:28:59.128Z,35.71
2022-11-16T04:29:29.105Z,35.71
2022-11-16T04:29:59.075Z,35.71
2022-11-16T04:30:29.050Z,35.71
2022-11-16T04:30:59.023Z,35.61
2022-11-16T04:31:28.987Z,35.71
2022-11-16T04:31:58.947Z,35.71
2022-11-16T04:32:28.965Z,35.71
2022-11-16T04:32:58.947Z,35.80
2022-11-16T04:33:28.915Z,35.71
2022-11-16T04:33:58.894Z,35.61
2022-11-16T04:34:28.868Z,35.71
2022-11-16T04:34:58.852Z,35.61
2022-11-16T04:35:28.825Z,35.61
2022-11-16T04:35:58.800Z,35.71
2022-11-16T04:36:28.771Z,35.71
2022-11-16T04:36:58.752Z,35.61
2022-11-16T04:37:28.719Z,35.50
2022-11-16T04:37:58.714Z,35.61
2022-11-16T04:38:28.716Z,35.61
2022-11-16T04:38:58.711Z,35.71
2022-11-16T04:39:28.712Z,35.71
2022-11-16T04:39:58.687Z,35.61
2022-11-16T04:40:28.648Z,35.61
2022-11-16T04:40:58.621Z,35.50
2022-11-16T04:41:28.592Z,35.61
2022-11-16T04:41:58.578Z,35.50
2022-11-16T04:42:28.542Z,35.61
2022-11-16T04:42:58.528Z,35.61
2022-11-16T04:43:28.532Z,35.61
2022-11-16T04:43:58.502Z,35.61
2022-11-16T04:44:30.052Z,35.61
2022-11-16T04:45:00.099Z,35.61
2022-11-16T04:45:30.069Z,35.61
2022-11-16T04:46:00.081Z,35.61
2022-11-16T04:46:30.052Z,35.50
2022-11-16T04:47:00.023Z,35.61
2022-11-16T04:47:29.987Z,35.61
2022-11-16T04:47:59.997Z,35.61
2022-11-16T04:48:30.307Z,35.61
2022-11-16T04:49:00.306Z,35.50
2022-11-16T04:49:30.270Z,35.50
2022-11-16T04:50:00.233Z,35.50
2022-11-16T04:50:30.196Z,35.50
2022-11-16T04:51:00.187Z,35.50
2022-11-16T04:51:30.153Z,35.50
2022-11-16T04:52:00.130Z,35.50
2022-11-16T04:52:30.105Z,35.50
2022-11-16T04:53:00.120Z,35.50
2022-11-16T04:53:30.089Z,35.50
2022-11-16T04:54:00.092Z,35.41
2022-11-16T04:54:30.064Z,35.50
2022-11-16T04:55:00.053Z,35.50
2022-11-16T04:55:30.057Z,35.50
2022-11-16T04:56:00.971Z,35.41
2022-11-16T04:56:31.159Z,35.41
2022-11-16T04:57:01.141Z,35.41
2022-11-16T04:57:31.136Z,35.41
2022-11-16T04:58:01.097Z,35.41
2022-11-16T04:58:31.349Z,35.41
2022-11-16T04:59:01.599Z,35.31
2022-11-16T04:59:31.569Z,35.31
2022-11-16T05:00:01.543Z,35.31
2022-11-16T05:00:31.515Z,35.41
2022-11-16T05:01:01.549Z,35.41
2022-11-16T05:01:31.638Z,35.41
2022-11-16T05:02:01.659Z,35.50
2022-11-16T05:02:31.652Z,35.50
2022-11-16T05:03:02.068Z,35.61
2022-11-16T05:03:32.089Z,35.50
2022-11-16T05:04:02.058Z,35.41
2022-11-16T05:04:32.025Z,35.41
2022-11-16T05:05:01.983Z,35.50
2022-11-16T05:05:31.948Z,35.50
2022-11-16T05:06:01.941Z,35.50
2022-11-16T05:06:31.906Z,35.50
2022-11-16T05:07:01.944Z,35.50
2022-11-16T05:07:32.052Z,35.50
2022-11-16T05:08:02.087Z,35.50
2022-11-16T05:08:32.423Z,35.41
2022-11-16T05:09:02.629Z,35.41
2022-11-16T05:09:32.589Z,35.41
2022-11-16T05:10:02.552Z,35.41
2022-11-16T05:10:32.516Z,35.31
2022-11-16T05:11:02.479Z,35.41
2022-11-16T05:11:32.452Z,35.41
2022-11-16T05:12:02.412Z,35.41
2022-11-16T05:12:32.406Z,35.41
2022-11-16T05:13:02.390Z,35.41
2022-11-16T05:13:32.351Z,35.41
2022-11-16T05:14:02.329Z,35.41
2022-11-16T05:14:32.291Z,35.41
2022-11-16T05:15:02.263Z,35.41
2022-11-16T05:15:32.228Z,35.41
2022-11-16T05:16:02.210Z,35.41
2022-11-16T05:16:32.182Z,35.41
2022-11-16T05:17:02.151Z,35.41
2022-11-16T05:17:32.106Z,35.41
2022-11-16T05:18:02.100Z,35.31
2022-11-16T05:18:32.438Z,35.31
2022-11-16T05:19:02.621Z,35.31
2022-11-16T05:19:32.582Z,35.21
2022-11-16T05:20:02.556Z,35.21
2022-11-16T05:20:32.530Z,35.21
2022-11-16T05:21:02.509Z,35.21
2022-11-16T05:21:32.484Z,35.31
2022-11-16T05:22:02.458Z,35.31
2022-11-16T05:22:32.430Z,35.41
2022-11-16T05:23:02.456Z,35.31
2022-11-16T05:23:32.416Z,35.21
2022-11-16T05:24:02.414Z,35.21
2022-11-16T05:24:32.378Z,35.21
2022-11-16T05:25:02.361Z,35.31
2022-11-16T05:25:36.446Z,35.31
2022-11-16T05:26:07.039Z,35.31
2022-11-16T05:26:37.001Z,35.41
2022-11-16T05:27:06.973Z,35.41
2022-11-16T05:27:36.946Z,35.31
2022-11-16T05:28:06.935Z,35.21
2022-11-16T05:28:37.275Z,35.11
2022-11-16T05:29:07.485Z,35.11
2022-11-16T05:29:37.456Z,35.11
2022-11-16T05:30:07.459Z,35.11
2022-11-16T05:30:37.431Z,35.11
2022-11-16T05:31:07.417Z,35.11
2022-11-16T05:31:40.453Z,35.01
2022-11-16T05:32:10.668Z,35.01
2022-11-16T05:32:40.641Z,35.11
2022-11-16T05:33:10.615Z,35.11
2022-11-16T05:33:40.586Z,35.11
2022-11-16T05:34:10.563Z,35.11
2022-11-16T05:34:40.542Z,35.11
2022-11-16T05:35:10.512Z,35.11
2022-11-16T05:35:40.486Z,35.11
2022-11-16T05:36:10.459Z,35.01
2022-11-16T05:36:40.438Z,34.99
2022-11-16T05:37:10.402Z,34.89
2022-11-16T05:37:40.374Z,34.80
2022-11-16T05:38:10.378Z,34.69
2022-11-16T05:38:40.379Z,34.69
2022-11-16T05:39:10.411Z,34.69
2022-11-16T05:39:40.398Z,34.80
2022-11-16T05:40:10.366Z,34.89
2022-11-16T05:40:40.332Z,34.80
2022-11-16T05:41:10.316Z,34.80
2022-11-16T05:41:40.289Z,34.80
2022-11-16T05:42:10.260Z,34.69
2022-11-16T05:42:40.241Z,34.59
2022-11-16T05:43:10.206Z,34.59
2022-11-16T05:43:40.177Z,34.50
2022-11-16T05:44:10.152Z,34.50
2022-11-16T05:44:40.158Z,34.50
2022-11-16T05:45:10.120Z,34.59
2022-11-16T05:45:40.124Z,34.50
2022-11-16T05:46:10.117Z,34.50
2022-11-16T05:46:40.089Z,34.50
2022-11-16T05:47:10.076Z,34.48
2022-11-16T05:47:40.048Z,34.59
2022-11-16T05:48:10.023Z,34.59
2022-11-16T05:48:39.985Z,34.40
2022-11-16T05:49:09.951Z,34.40
2022-11-16T05:49:39.965Z,34.30
2022-11-16T05:50:09.927Z,34.31
2022-11-16T05:50:42.702Z,34.53
2022-11-16T05:51:13.119Z,34.53
2022-11-16T05:51:43.084Z,34.83
2022-11-16T05:52:13.075Z,34.92
2022-11-16T05:52:43.032Z,35.05
2022-11-16T05:53:12.995Z,35.03
2022-11-16T05:53:42.969Z,34.92
2022-11-16T05:54:12.969Z,34.92
2022-11-16T05:54:42.937Z,34.83
2022-11-16T05:55:12.902Z,34.83
2022-11-16T05:55:42.876Z,34.63
2022-11-16T05:56:12.926Z,34.83
2022-11-16T05:56:42.981Z,34.83
2022-11-16T05:57:12.975Z,34.81
2022-11-16T05:57:42.933Z,34.91
2022-11-16T05:58:12.895Z,35.11
2022-11-16T05:58:42.869Z,35.01
2022-11-16T05:59:16.458Z,34.91
2022-11-16T05:59:46.712Z,34.91
2022-11-16T06:00:16.687Z,34.89
2022-11-16T06:00:46.659Z,34.89
2022-11-16T06:01:16.631Z,34.69
2022-11-16T06:01:46.596Z,34.69
2022-11-16T06:02:16.577Z,34.50
2022-11-16T06:02:46.591Z,34.50
2022-11-16T06:03:16.619Z,34.50
2022-11-16T06:03:46.611Z,34.40
2022-11-16T06:04:16.576Z,34.22
2022-11-16T06:04:46.676Z,34.71
2022-11-16T06:05:16.640Z,34.61
2022-11-16T06:05:46.602Z,34.71
2022-11-16T06:06:16.567Z,34.81
2022-11-16T06:06:46.530Z,34.91
2022-11-16T06:07:16.611Z,34.81
2022-11-16T06:07:46.588Z,34.71
2022-11-16T06:08:16.603Z,34.69
2022-11-16T06:08:46.572Z,34.59
2022-11-16T06:09:16.544Z,34.59
2022-11-16T06:09:46.529Z,34.59
2022-11-16T06:10:16.500Z,34.59
2022-11-16T06:10:46.485Z,34.59
2022-11-16T06:11:16.739Z,34.50
2022-11-16T06:11:46.716Z,34.40
2022-11-16T06:12:16.694Z,34.30
2022-11-16T06:12:46.663Z,34.30
2022-11-16T06:13:16.633Z,34.20
2022-11-16T06:13:46.610Z,34.20
2022-11-16T06:14:16.596Z,34.08
2022-11-16T06:14:46.561Z,33.98
2022-11-16T06:15:16.535Z,33.98
2022-11-16T06:15:51.571Z,33.98
2022-11-16T06:16:21.807Z,33.98
2022-11-16T06:16:51.769Z,34.08
2022-11-16T06:17:21.766Z,34.08
2022-11-16T06:17:51.741Z,34.08
2022-11-16T06:18:21.703Z,34.08
2022-11-16T06:18:51.685Z,34.08
2022-11-16T06:19:21.672Z,33.98
2022-11-16T06:19:51.638Z,33.98
2022-11-16T06:20:21.638Z,33.98
2022-11-16T06:20:51.662Z,33.98
2022-11-16T06:21:21.638Z,33.88
2022-11-16T06:21:51.625Z,33.78
2022-11-16T06:22:21.595Z,33.88
2022-11-16T06:22:51.584Z,33.98
2022-11-16T06:23:21.548Z,33.98
2022-11-16T06:23:51.519Z,33.88
2022-11-16T06:24:21.491Z,33.88
2022-11-16T06:24:51.455Z,33.78
2022-11-16T06:25:21.420Z,33.88
2022-11-16T06:25:51.408Z,33.78
2022-11-16T06:26:21.379Z,33.78
2022-11-16T06:26:51.353Z,33.88